createdAt,value
2023-02-04T00:01:07.132Z,31.23
2023-02-04T00:03:33.695Z,31.20
2023-02-04T00:06:00.323Z,38.07
2023-02-04T00:08:26.839Z,36.10
2023-02-04T00:10:53.438Z,33.13
2023-02-04T00:13:20.063Z,31.33
2023-02-04T00:15:46.607Z,39.37
2023-02-04T00:18:13.257Z,28.43
2023-02-04T00:20:39.785Z,27.23
2023-02-04T00:23:06.326Z,23.07
2023-02-04T00:25:33.019Z,29.57
2023-02-04T00:27:59.587Z,22.83
2023-02-04T00:30:26.294Z,21.27
2023-02-04T00:32:54.925Z,30.13
2023-02-04T00:35:21.742Z,40.30
2023-02-04T00:37:48.290Z,31.03
2023-02-04T00:40:14.893Z,19.63
2023-02-04T00:42:41.425Z,29.40
2023-02-04T00:45:08.716Z,26.47
2023-02-04T00:47:35.319Z,25.50
2023-02-04T00:50:01.838Z,26.03
2023-02-04T00:52:28.526Z,39.23
2023-02-04T00:54:55.121Z,29.13
2023-02-04T00:57:22.029Z,32.00
2023-02-04T00:59:48.668Z,20.67
2023-02-04T01:02:17.641Z,43.73
2023-02-04T01:04:45.087Z,38.20
2023-02-04T01:07:11.720Z,25.80
2023-02-04T01:09:38.287Z,48.53
2023-02-04T01:12:04.819Z,44.37
2023-02-04T01:14:31.586Z,24.77
2023-02-04T01:16:58.254Z,37.70
2023-02-04T01:19:26.029Z,28.90
2023-02-04T01:21:52.985Z,17.27
2023-02-04T01:24:19.514Z,23.07
2023-02-04T01:27:04.837Z,28.37
2023-02-04T01:29:31.921Z,29.03
2023-02-04T01:31:58.594Z,29.73
2023-02-04T01:34:26.088Z,29.07
2023-02-04T01:36:52.921Z,24.60
2023-02-04T01:39:19.421Z,28.37
2023-02-04T01:41:46.700Z,25.53
2023-02-04T01:44:13.417Z,31.23
2023-02-04T01:46:40.822Z,24.67
2023-02-04T01:49:09.628Z,27.63
2023-02-04T01:51:37.097Z,22.00
2023-02-04T01:54:03.935Z,27.77
2023-02-04T01:56:31.780Z,28.10
2023-02-04T01:58:58.530Z,19.43
2023-02-04T02:01:37.008Z,40.60
2023-02-04T02:04:04.441Z,34.30
2023-02-04T02:06:31.200Z,25.60
2023-02-04T02:08:58.423Z,28.73
2023-02-04T02:11:26.112Z,31.33
2023-02-04T02:13:52.771Z,33.97
2023-02-04T02:16:19.414Z,20.87
2023-02-04T02:18:46.363Z,35.23
2023-02-04T02:21:14.552Z,32.67
2023-02-04T02:23:44.157Z,28.40
2023-02-04T02:26:10.714Z,22.23
2023-02-04T02:28:37.266Z,33.50
2023-02-04T02:31:04.105Z,22.70
2023-02-04T02:33:30.779Z,24.43
2023-02-04T02:35:57.310Z,17.03
2023-02-04T02:38:24.435Z,29.77
2023-02-04T02:40:52.572Z,14.63
2023-02-04T02:43:23.476Z,14.33
2023-02-04T02:45:50.521Z,20.90
2023-02-04T02:48:17.077Z,20.10
2023-02-04T02:50:44.368Z,25.33
2023-02-04T02:53:12.622Z,17.13
2023-02-04T02:55:40.529Z,36.73
2023-02-04T02:58:14.326Z,21.63
2023-02-04T03:00:40.904Z,29.50
2023-02-04T03:03:14.243Z,24.63
2023-02-04T03:05:44.952Z,25.23
2023-02-04T03:08:12.769Z,30.93
2023-02-04T03:10:39.270Z,20.70
2023-02-04T03:13:05.873Z,22.60
2023-02-04T03:15:32.996Z,31.53
2023-02-04T03:18:00.155Z,42.87
2023-02-04T03:20:28.095Z,31.43
2023-02-04T03:22:55.678Z,32.10
2023-02-04T03:25:24.620Z,18.00
2023-02-04T03:27:51.784Z,20.90
2023-02-04T03:30:20.191Z,28.80
2023-02-04T03:32:46.790Z,27.43
2023-02-04T03:35:13.570Z,43.63
2023-02-04T03:37:40.357Z,40.40
2023-02-04T03:40:07.081Z,37.23
2023-02-04T03:42:33.958Z,41.63
2023-02-04T03:45:00.588Z,26.93
2023-02-04T03:47:27.173Z,24.43
2023-02-04T03:49:53.762Z,43.93
2023-02-04T03:52:23.375Z,30.53
2023-02-04T03:54:49.907Z,33.93
2023-02-04T03:57:16.419Z,52.97
2023-02-04T03:59:42.999Z,24.67
2023-02-04T04:02:09.945Z,17.63
2023-02-04T04:04:36.660Z,28.03
2023-02-04T04:07:03.430Z,24.30
2023-02-04T04:09:29.942Z,36.30
2023-02-04T04:11:56.527Z,44.10
2023-02-04T04:14:23.084Z,29.13
2023-02-04T04:16:49.620Z,29.27
2023-02-04T04:19:16.216Z,34.83
2023-02-04T04:21:42.719Z,31.90
2023-02-04T04:24:09.410Z,23.23
2023-02-04T04:26:36.129Z,26.63
2023-02-04T04:29:02.710Z,35.47
2023-02-04T04:31:29.390Z,26.80
2023-02-04T04:33:56.106Z,52.80
2023-02-04T04:36:22.691Z,38.43
2023-02-04T04:38:49.144Z,31.80
2023-02-04T04:41:15.699Z,52.67
2023-02-04T04:43:42.302Z,34.30
2023-02-04T04:46:08.872Z,27.67
2023-02-04T04:48:35.491Z,30.40
2023-02-04T04:51:02.844Z,31.50
2023-02-04T04:53:29.335Z,38.77
2023-02-04T04:55:55.902Z,46.60
2023-02-04T04:58:22.425Z,49.33
2023-02-04T05:00:49.097Z,20.87
2023-02-04T05:03:15.607Z,47.83
2023-02-04T05:05:42.135Z,41.40
2023-02-04T05:08:12.945Z,33.63
2023-02-04T05:10:40.358Z,30.20
2023-02-04T05:13:07.016Z,26.07
2023-02-04T05:15:33.876Z,29.40
2023-02-04T05:18:00.407Z,56.80
2023-02-04T05:20:27.017Z,42.83
2023-02-04T05:22:54.625Z,40.80
2023-02-04T05:25:21.368Z,49.63
2023-02-04T05:27:48.177Z,54.40
2023-02-04T05:30:14.961Z,39.90
2023-02-04T05:32:42.543Z,38.30
2023-02-04T05:35:09.442Z,32.83
2023-02-04T05:37:36.065Z,41.07
2023-02-04T05:40:02.784Z,32.03
2023-02-04T05:42:29.432Z,48.13
2023-02-04T05:44:55.921Z,33.33
2023-02-04T05:47:22.587Z,32.73
2023-02-04T05:49:49.166Z,42.97
2023-02-04T05:52:15.938Z,28.47
2023-02-04T05:54:42.439Z,46.50
2023-02-04T05:57:08.998Z,30.87
2023-02-04T05:59:35.785Z,41.83
2023-02-04T06:02:02.374Z,32.70
2023-02-04T06:04:28.945Z,51.17
2023-02-04T06:06:55.509Z,43.17
2023-02-04T06:09:22.293Z,54.97
2023-02-04T06:11:48.846Z,42.17
2023-02-04T06:14:15.362Z,69.73
2023-02-04T06:16:41.984Z,59.20
2023-02-04T06:19:08.583Z,38.53
2023-02-04T06:21:35.088Z,53.90
2023-02-04T06:24:01.585Z,51.47
2023-02-04T06:26:28.209Z,46.53
2023-02-04T06:28:55.076Z,64.17
2023-02-04T06:31:21.781Z,46.10
2023-02-04T06:33:48.459Z,45.80
2023-02-04T06:36:15.048Z,49.03
2023-02-04T06:38:41.548Z,54.47
2023-02-04T06:41:08.316Z,52.37
2023-02-04T06:43:34.881Z,50.90
2023-02-04T06:46:01.504Z,53.43
2023-02-04T06:48:29.636Z,52.30
2023-02-04T06:50:57.449Z,53.60
2023-02-04T06:53:23.929Z,45.97
2023-02-04T06:55:50.686Z,46.13
2023-02-04T06:58:17.357Z,50.43
2023-02-04T07:00:44.270Z,58.63
2023-02-04T07:03:10.791Z,54.97
2023-02-04T07:05:37.321Z,54.63
2023-02-04T07:08:03.917Z,49.87
2023-02-04T07:10:30.941Z,40.77
2023-02-04T07:12:57.643Z,53.60
2023-02-04T07:15:24.179Z,63.70
2023-02-04T07:17:50.717Z,56.07
2023-02-04T07:20:17.323Z,43.10
2023-02-04T07:22:43.849Z,55.83
2023-02-04T07:25:11.628Z,59.50
2023-02-04T07:27:38.142Z,52.07
2023-02-04T07:30:04.805Z,50.70
2023-02-04T07:32:33.541Z,62.00
2023-02-04T07:35:00.585Z,62.47
2023-02-04T07:37:27.228Z,58.17
2023-02-04T07:39:53.957Z,59.03
2023-02-04T07:42:20.564Z,54.00
2023-02-04T07:44:53.417Z,78.50
2023-02-04T07:47:19.988Z,43.53
2023-02-04T07:49:46.769Z,52.93
2023-02-04T07:52:13.279Z,85.27
2023-02-04T07:54:39.831Z,61.77
2023-02-04T07:57:06.454Z,56.43
2023-02-04T07:59:32.948Z,67.43
2023-02-04T08:01:59.828Z,60.03
2023-02-04T08:04:26.404Z,84.93
2023-02-04T08:06:53.095Z,56.87
2023-02-04T08:09:19.965Z,76.07
2023-02-04T08:11:46.420Z,73.63
2023-02-04T08:14:13.198Z,84.43
2023-02-04T08:16:39.749Z,79.93
2023-02-04T08:19:06.269Z,65.20
2023-02-04T08:21:32.902Z,68.00
2023-02-04T08:23:59.426Z,72.63
2023-02-04T08:26:26.265Z,84.20
2023-02-04T08:28:52.854Z,81.90
2023-02-04T08:31:19.524Z,84.83
2023-02-04T08:33:46.140Z,73.20
2023-02-04T08:36:12.760Z,83.93
2023-02-04T08:38:40.543Z,95.53
2023-02-04T08:41:07.339Z,61.20
2023-02-04T08:43:33.967Z,67.67
2023-02-04T08:46:00.880Z,62.33
2023-02-04T08:48:27.669Z,60.40
2023-02-04T08:50:54.260Z,62.60
2023-02-04T08:53:20.813Z,59.40
2023-02-04T08:55:47.365Z,67.20
2023-02-04T08:58:13.836Z,67.73
2023-02-04T09:00:41.508Z,57.47
2023-02-04T09:03:08.153Z,66.00
2023-02-04T09:05:34.946Z,59.93
2023-02-04T09:08:01.515Z,54.63
2023-02-04T09:10:28.262Z,64.60
2023-02-04T09:12:56.110Z,41.40
2023-02-04T09:15:26.753Z,56.47
2023-02-04T09:18:04.510Z,56.40
2023-02-04T09:20:31.567Z,72.80
2023-02-04T09:22:58.476Z,65.13
2023-02-04T09:25:25.123Z,63.50
2023-02-04T09:27:51.763Z,58.80
2023-02-04T09:30:18.369Z,40.30
2023-02-04T09:32:45.019Z,55.70
2023-02-04T09:35:11.645Z,47.53
2023-02-04T09:37:38.386Z,55.23
2023-02-04T09:40:05.169Z,58.43
2023-02-04T09:42:31.882Z,39.17
2023-02-04T09:45:00.823Z,44.73
2023-02-04T09:47:27.613Z,54.23
2023-02-04T09:49:54.205Z,43.10
2023-02-04T09:52:20.936Z,75.70
2023-02-04T09:54:47.491Z,65.17
2023-02-04T09:57:16.923Z,50.63
2023-02-04T09:59:45.656Z,47.10
2023-02-04T10:02:25.479Z,84.50
2023-02-04T10:04:57.624Z,60.63
2023-02-04T10:07:26.540Z,204.80
2023-02-04T10:09:54.437Z,115.43
2023-02-04T10:12:21.305Z,66.27
2023-02-04T10:14:47.958Z,100.73
2023-02-04T10:17:17.920Z,56.17
2023-02-04T10:19:44.402Z,48.43
2023-02-04T10:22:15.710Z,50.03
2023-02-04T10:24:42.297Z,48.60
2023-02-04T10:27:09.888Z,51.47
2023-02-04T10:29:36.512Z,43.70
2023-02-04T10:32:03.544Z,60.83
2023-02-04T10:34:34.484Z,44.77
2023-02-04T10:37:11.391Z,43.77
2023-02-04T10:39:42.889Z,52.23
2023-02-04T10:42:23.261Z,41.43
2023-02-04T10:44:50.103Z,60.73
2023-02-04T10:47:18.398Z,47.77
2023-02-04T10:50:00.364Z,52.13
2023-02-04T10:52:33.879Z,65.30
2023-02-04T10:55:01.216Z,48.90
2023-02-04T10:57:28.889Z,45.23
2023-02-04T11:00:00.025Z,55.63
2023-02-04T11:02:32.673Z,50.10
2023-02-04T11:04:59.419Z,59.13
2023-02-04T11:07:26.073Z,50.27
2023-02-04T11:09:52.646Z,40.10
2023-02-04T11:12:20.437Z,50.13
2023-02-04T11:14:57.253Z,63.23
2023-02-04T11:17:33.964Z,49.57
2023-02-04T11:20:01.032Z,38.67
2023-02-04T11:22:41.710Z,44.73
2023-02-04T11:25:27.117Z,46.57
2023-02-04T11:27:53.685Z,52.37
2023-02-04T11:30:21.545Z,38.87
2023-02-04T11:33:17.429Z,42.07
2023-02-04T11:35:56.914Z,35.00
2023-02-04T11:38:27.053Z,45.70
2023-02-04T11:40:57.363Z,71.83
2023-02-04T11:43:24.043Z,53.33
2023-02-04T11:46:01.139Z,32.47
2023-02-04T11:48:28.015Z,51.50
2023-02-04T11:51:01.989Z,48.77
2023-02-04T11:53:29.961Z,47.83
2023-02-04T11:55:56.462Z,48.20
2023-02-04T11:58:26.042Z,42.43
2023-02-04T12:00:53.074Z,31.60
2023-02-04T12:03:21.537Z,30.83
2023-02-04T12:05:49.500Z,53.47
2023-02-04T12:08:22.017Z,35.43
2023-02-04T12:11:09.342Z,49.40
2023-02-04T12:13:47.137Z,50.87
2023-02-04T12:16:13.708Z,37.20
2023-02-04T12:18:40.363Z,45.63
2023-02-04T12:21:07.054Z,35.00
2023-02-04T12:23:33.601Z,34.77
2023-02-04T12:26:00.276Z,33.43
2023-02-04T12:28:28.101Z,32.83
2023-02-04T12:30:55.313Z,47.70
2023-02-04T12:33:22.931Z,31.47
2023-02-04T12:35:49.472Z,36.17
2023-02-04T12:38:16.449Z,38.60
2023-02-04T12:40:43.124Z,33.83
2023-02-04T12:43:09.773Z,39.90
2023-02-04T12:45:37.741Z,60.30
2023-02-04T12:48:04.431Z,45.23
2023-02-04T12:50:30.967Z,37.50
2023-02-04T12:52:58.407Z,44.03
2023-02-04T12:55:25.978Z,57.03
2023-02-04T12:57:52.806Z,33.87
2023-02-04T13:00:20.206Z,37.70
2023-02-04T13:02:47.500Z,45.23
2023-02-04T13:05:14.586Z,37.23
2023-02-04T13:07:41.162Z,31.63
2023-02-04T13:10:08.894Z,32.70
2023-02-04T13:12:35.818Z,39.13
2023-02-04T13:15:02.464Z,39.77
2023-02-04T13:17:28.995Z,32.57
2023-02-04T13:19:55.547Z,33.73
2023-02-04T13:22:22.089Z,42.93
2023-02-04T13:24:48.623Z,34.63
2023-02-04T13:27:15.502Z,38.23
2023-02-04T13:29:42.090Z,43.40
2023-02-04T13:32:09.486Z,35.83
2023-02-04T13:34:35.977Z,29.40
2023-02-04T13:37:02.919Z,33.93
2023-02-04T13:39:29.935Z,30.87
2023-02-04T13:41:56.488Z,38.37
2023-02-04T13:44:23.103Z,45.03
2023-02-04T13:46:50.021Z,33.10
2023-02-04T13:49:16.621Z,50.53
2023-02-04T13:51:43.260Z,33.67
2023-02-04T13:54:09.840Z,42.07
2023-02-04T13:56:37.761Z,42.63
2023-02-04T13:59:04.362Z,45.70
2023-02-04T14:01:31.309Z,39.70
2023-02-04T14:03:58.027Z,32.63
2023-02-04T14:06:33.099Z,42.03
2023-02-04T14:09:03.122Z,49.03
2023-02-04T14:11:29.776Z,29.27
2023-02-04T14:13:56.654Z,30.10
2023-02-04T14:16:24.288Z,27.53
2023-02-04T14:18:50.952Z,39.13
2023-02-04T14:21:17.821Z,38.03
2023-02-04T14:23:44.662Z,27.43
2023-02-04T14:26:11.204Z,48.40
2023-02-04T14:28:37.788Z,24.20
2023-02-04T14:31:04.744Z,21.30
2023-02-04T14:33:31.298Z,27.30
2023-02-04T14:35:57.999Z,29.27
2023-02-04T14:38:24.692Z,28.63
2023-02-04T14:40:51.489Z,28.20
2023-02-04T14:43:18.037Z,37.80
2023-02-04T14:45:44.689Z,31.60
2023-02-04T14:48:11.214Z,31.07
2023-02-04T14:50:37.822Z,27.00
2023-02-04T14:53:04.473Z,26.50
2023-02-04T14:55:31.275Z,34.50
2023-02-04T14:57:58.005Z,40.53
2023-02-04T15:00:24.707Z,31.27
2023-02-04T15:02:51.401Z,41.23
2023-02-04T15:05:18.193Z,47.20
2023-02-04T15:07:45.182Z,34.00
2023-02-04T15:10:13.816Z,25.07
2023-02-04T15:12:41.951Z,37.23
2023-02-04T15:15:08.821Z,35.20
2023-02-04T15:17:35.435Z,21.83
2023-02-04T15:20:04.082Z,30.57
2023-02-04T15:22:31.100Z,35.63
2023-02-04T15:24:57.954Z,37.40
2023-02-04T15:27:26.116Z,22.20
2023-02-04T15:29:53.006Z,41.63
2023-02-04T15:32:20.075Z,52.07
2023-02-04T15:34:46.986Z,39.87
2023-02-04T15:37:13.829Z,39.67
2023-02-04T15:39:40.678Z,33.17
2023-02-04T15:42:08.525Z,30.43
2023-02-04T15:44:35.003Z,37.07
2023-02-04T15:47:01.627Z,27.47
2023-02-04T15:49:28.624Z,29.17
2023-02-04T15:51:55.406Z,41.33
2023-02-04T15:54:21.980Z,41.80
2023-02-04T15:56:48.606Z,37.50
2023-02-04T15:59:15.962Z,38.70
2023-02-04T16:01:42.669Z,48.07
2023-02-04T16:04:09.831Z,47.63
2023-02-04T16:06:36.649Z,42.53
2023-02-04T16:09:03.304Z,50.60
2023-02-04T16:11:30.188Z,58.27
2023-02-04T16:13:56.874Z,45.43
2023-02-04T16:16:23.505Z,48.63
2023-02-04T16:18:50.202Z,36.23
2023-02-04T16:21:16.891Z,34.90
2023-02-04T16:23:43.655Z,51.07
2023-02-04T16:26:10.436Z,36.43
2023-02-04T16:28:38.307Z,46.60
2023-02-04T16:31:05.177Z,39.53
2023-02-04T16:33:31.756Z,110.40
2023-02-04T16:36:03.289Z,66.00
2023-02-04T16:38:30.454Z,47.83
2023-02-04T16:40:57.260Z,81.70
2023-02-04T16:43:24.517Z,50.87
2023-02-04T16:45:51.431Z,43.87
2023-02-04T16:48:17.940Z,56.80
2023-02-04T16:50:44.496Z,47.80
2023-02-04T16:53:15.111Z,51.93
2023-02-04T16:55:45.226Z,49.97
2023-02-04T16:58:12.365Z,46.40
2023-02-04T17:00:41.998Z,38.10
2023-02-04T17:03:09.503Z,55.73
2023-02-04T17:05:36.414Z,41.10
2023-02-04T17:08:03.152Z,35.90
2023-02-04T17:10:48.485Z,41.83
2023-02-04T17:13:15.133Z,45.57
2023-02-04T17:15:41.769Z,44.03
2023-02-04T17:18:08.365Z,48.23
2023-02-04T17:20:35.037Z,40.10
2023-02-04T17:23:01.643Z,36.03
2023-02-04T17:25:28.207Z,47.10
2023-02-04T17:27:56.513Z,43.33
2023-02-04T17:30:23.396Z,46.87
2023-02-04T17:32:49.891Z,41.10
2023-02-04T17:35:17.340Z,42.33
2023-02-04T17:37:43.889Z,41.60
2023-02-04T17:40:13.046Z,30.73
2023-02-04T17:42:40.445Z,55.87
2023-02-04T17:45:07.534Z,45.07
2023-02-04T17:47:34.045Z,40.27
2023-02-04T17:50:00.880Z,33.13
2023-02-04T17:52:27.480Z,39.27
2023-02-04T17:54:53.997Z,43.67
2023-02-04T17:57:21.094Z,36.70
2023-02-04T17:59:48.534Z,59.73
2023-02-04T18:02:29.711Z,36.00
2023-02-04T18:05:01.028Z,32.33
2023-02-04T18:07:27.790Z,46.97
2023-02-04T18:10:01.061Z,50.20
2023-02-04T18:12:27.641Z,44.67
2023-02-04T18:14:54.504Z,35.50
2023-02-04T18:17:21.260Z,50.40
2023-02-04T18:19:47.829Z,47.10
2023-02-04T18:22:16.827Z,45.97
2023-02-04T18:24:45.555Z,47.23
2023-02-04T18:27:18.108Z,52.00
2023-02-04T18:29:50.064Z,40.97
2023-02-04T18:32:49.472Z,42.60
2023-02-04T18:35:23.161Z,33.77
2023-02-04T18:37:51.537Z,32.03
2023-02-04T18:40:22.158Z,40.27
2023-02-04T18:42:49.886Z,29.60
2023-02-04T18:45:27.655Z,56.27
2023-02-04T18:47:58.435Z,26.73
2023-02-04T18:50:29.867Z,38.80
2023-02-04T18:53:00.450Z,31.23
2023-02-04T18:55:31.963Z,40.10
2023-02-04T18:58:12.948Z,43.47
2023-02-04T19:00:39.596Z,77.87
2023-02-04T19:03:18.285Z,35.87
2023-02-04T19:05:49.284Z,39.40
2023-02-04T19:08:22.392Z,40.60
2023-02-04T19:10:49.611Z,25.63
2023-02-04T19:13:25.668Z,35.80
2023-02-04T19:16:03.916Z,34.60
2023-02-04T19:18:42.463Z,53.23
2023-02-04T19:21:27.374Z,47.73
2023-02-04T19:24:23.653Z,37.30
2023-02-04T19:26:55.232Z,41.77
2023-02-04T19:29:21.999Z,41.93
2023-02-04T19:31:49.546Z,34.47
2023-02-04T19:34:22.510Z,53.00
2023-02-04T19:36:49.241Z,51.37
2023-02-04T19:39:38.717Z,40.40
2023-02-04T19:42:23.144Z,37.53
2023-02-04T19:44:51.232Z,44.57
2023-02-04T19:47:32.599Z,44.13
2023-02-04T19:50:05.264Z,44.37
2023-02-04T19:52:36.445Z,36.03
2023-02-04T19:55:18.368Z,41.63
2023-02-04T19:57:46.384Z,42.10
2023-02-04T20:00:26.458Z,27.80
2023-02-04T20:02:53.243Z,42.10
2023-02-04T20:05:21.642Z,37.50
2023-02-04T20:07:48.450Z,42.00
2023-02-04T20:10:25.012Z,36.33
2023-02-04T20:12:54.223Z,31.60
2023-02-04T20:15:23.547Z,58.27
2023-02-04T20:17:51.265Z,48.97
2023-02-04T20:20:17.850Z,33.60
2023-02-04T20:22:45.858Z,52.40
2023-02-04T20:25:18.898Z,42.20
2023-02-04T20:27:46.357Z,61.57
2023-02-04T20:30:12.832Z,50.17
2023-02-04T20:32:44.945Z,51.83
2023-02-04T20:35:20.813Z,54.53
2023-02-04T20:37:55.016Z,55.60
2023-02-04T20:40:21.586Z,64.63
2023-02-04T20:43:10.166Z,51.60
2023-02-04T20:45:38.181Z,51.53
2023-02-04T20:48:17.285Z,54.80
2023-02-04T20:50:53.979Z,63.63
2023-02-04T20:53:37.501Z,52.77
2023-02-04T20:56:13.276Z,46.23
2023-02-04T20:58:45.723Z,57.97
2023-02-04T21:01:18.662Z,68.57
2023-02-04T21:03:45.859Z,57.90
2023-02-04T21:06:29.093Z,63.73
2023-02-04T21:08:57.198Z,61.80
2023-02-04T21:11:24.748Z,66.30
2023-02-04T21:13:52.624Z,65.50
2023-02-04T21:16:19.714Z,59.00
2023-02-04T21:18:47.521Z,64.13
2023-02-04T21:21:14.495Z,55.23
2023-02-04T21:23:41.022Z,71.63
2023-02-04T21:26:08.120Z,68.30
2023-02-04T21:28:34.854Z,58.83
2023-02-04T21:31:01.551Z,61.03
2023-02-04T21:33:28.372Z,51.30
2023-02-04T21:35:55.161Z,60.13
2023-02-04T21:38:21.959Z,73.07
2023-02-04T21:40:48.713Z,57.50
2023-02-04T21:43:15.373Z,68.23
2023-02-04T21:45:41.976Z,61.63
2023-02-04T21:48:08.604Z,72.47
2023-02-04T21:50:36.375Z,60.63
2023-02-04T21:53:03.182Z,70.17
2023-02-04T21:55:31.697Z,83.83
2023-02-04T21:57:58.542Z,84.03
2023-02-04T22:00:25.377Z,85.43
2023-02-04T22:02:52.520Z,87.40
2023-02-04T22:05:20.078Z,96.43
2023-02-04T22:07:46.737Z,86.70
2023-02-04T22:10:15.206Z,91.10
2023-02-04T22:12:41.840Z,107.30
2023-02-04T22:15:09.166Z,88.70
2023-02-04T22:17:35.846Z,99.43
2023-02-04T22:20:02.460Z,83.47
2023-02-04T22:22:29.133Z,103.40
2023-02-04T22:24:55.917Z,80.07
2023-02-04T22:27:23.039Z,82.00
2023-02-04T22:29:50.041Z,89.63
2023-02-04T22:32:16.782Z,94.30
2023-02-04T22:34:43.438Z,89.47
2023-02-04T22:37:10.193Z,94.57
2023-02-04T22:39:36.844Z,87.47
2023-02-04T22:42:03.586Z,111.90
2023-02-04T22:44:30.356Z,81.27
2023-02-04T22:46:57.036Z,110.60
2023-02-04T22:49:23.656Z,96.10
2023-02-04T22:51:50.286Z,106.63
2023-02-04T22:54:17.020Z,118.73
2023-02-04T22:56:43.605Z,97.10
2023-02-04T22:59:10.170Z,127.30
2023-02-04T23:01:36.832Z,103.23
2023-02-04T23:04:03.396Z,105.00
2023-02-04T23:06:30.120Z,114.00
2023-02-04T23:08:56.687Z,115.27
2023-02-04T23:11:24.835Z,108.30
2023-02-04T23:13:51.413Z,114.57
2023-02-04T23:16:19.060Z,121.37
2023-02-04T23:18:45.794Z,124.63
2023-02-04T23:21:12.997Z,140.77
2023-02-04T23:23:39.640Z,130.93
2023-02-04T23:26:06.114Z,132.60
2023-02-04T23:28:32.942Z,145.57
2023-02-04T23:30:59.756Z,140.73
2023-02-04T23:33:26.333Z,137.80
2023-02-04T23:35:52.810Z,145.67
2023-02-04T23:38:19.320Z,163.30
2023-02-04T23:40:45.841Z,138.13
2023-02-04T23:43:12.419Z,140.83
2023-02-04T23:45:39.078Z,108.03
2023-02-04T23:48:05.795Z,123.30
2023-02-04T23:50:32.836Z,156.57
2023-02-04T23:52:59.390Z,178.27
2023-02-04T23:55:26.226Z,165.93
2023-02-04T23:57:52.820Z,162.23
